sensor_id;sensor_type;location;lat;lon;timestamp;P1;durP1;ratioP1;P2;durP2;ratioP2
16015;SDS011;8112;53.592;10.184;2023-07-29T00:04:35;3.03;;;2.73;;
16015;SDS011;8112;53.592;10.184;2023-07-29T00:09:38;5.30;;;3.10;;
16015;SDS011;8112;53.592;10.184;2023-07-29T00:14:40;3.50;;;2.93;;
16015;SDS011;8112;53.592;10.184;2023-07-29T00:19:42;5.10;;;3.03;;
16015;SDS011;8112;53.592;10.184;2023-07-29T00:24:45;4.23;;;3.00;;
16015;SDS011;8112;53.592;10.184;2023-07-29T00:29:53;3.73;;;3.43;;
16015;SDS011;8112;53.592;10.184;2023-07-29T00:34:55;4.33;;;3.80;;
16015;SDS011;8112;53.592;10.184;2023-07-29T00:39:58;3.53;;;3.30;;
16015;SDS011;8112;53.592;10.184;2023-07-29T00:45:00;4.07;;;3.67;;
16015;SDS011;8112;53.592;10.184;2023-07-29T00:50:01;4.00;;;3.70;;
16015;SDS011;8112;53.592;10.184;2023-07-29T00:55:06;5.60;;;4.17;;
16015;SDS011;8112;53.592;10.184;2023-07-29T01:00:09;4.63;;;4.23;;
16015;SDS011;8112;53.592;10.184;2023-07-29T01:05:12;4.73;;;4.23;;
16015;SDS011;8112;53.592;10.184;2023-07-29T01:10:19;4.73;;;4.37;;
16015;SDS011;8112;53.592;10.184;2023-07-29T01:15:32;4.90;;;4.50;;
16015;SDS011;8112;53.592;10.184;2023-07-29T01:20:41;5.03;;;4.63;;
16015;SDS011;8112;53.592;10.184;2023-07-29T01:25:47;7.40;;;4.80;;
16015;SDS011;8112;53.592;10.184;2023-07-29T01:30:49;5.30;;;4.80;;
16015;SDS011;8112;53.592;10.184;2023-07-29T01:35:58;5.27;;;4.87;;
16015;SDS011;8112;53.592;10.184;2023-07-29T01:41:07;5.60;;;5.17;;
16015;SDS011;8112;53.592;10.184;2023-07-29T01:46:17;5.67;;;5.10;;
16015;SDS011;8112;53.592;10.184;2023-07-29T01:51:22;6.97;;;6.27;;
16015;SDS011;8112;53.592;10.184;2023-07-29T01:56:25;5.93;;;5.43;;
16015;SDS011;8112;53.592;10.184;2023-07-29T02:01:29;8.37;;;6.63;;
16015;SDS011;8112;53.592;10.184;2023-07-29T02:06:31;6.90;;;6.30;;
16015;SDS011;8112;53.592;10.184;2023-07-29T02:11:34;8.43;;;7.57;;
16015;SDS011;8112;53.592;10.184;2023-07-29T02:16:36;10.30;;;7.53;;
16015;SDS011;8112;53.592;10.184;2023-07-29T02:21:39;8.13;;;7.33;;
16015;SDS011;8112;53.592;10.184;2023-07-29T02:26:42;6.37;;;5.60;;
16015;SDS011;8112;53.592;10.184;2023-07-29T02:31:44;9.47;;;8.67;;
16015;SDS011;8112;53.592;10.184;2023-07-29T02:36:45;6.63;;;6.03;;
16015;SDS011;8112;53.592;10.184;2023-07-29T02:41:49;9.70;;;8.83;;
16015;SDS011;8112;53.592;10.184;2023-07-29T02:46:51;8.73;;;7.93;;
16015;SDS011;8112;53.592;10.184;2023-07-29T02:51:55;12.17;;;9.80;;
16015;SDS011;8112;53.592;10.184;2023-07-29T02:56:58;10.63;;;9.57;;
16015;SDS011;8112;53.592;10.184;2023-07-29T03:02:00;12.03;;;10.83;;
16015;SDS011;8112;53.592;10.184;2023-07-29T03:07:02;11.57;;;10.37;;
16015;SDS011;8112;53.592;10.184;2023-07-29T03:12:06;11.30;;;10.00;;
16015;SDS011;8112;53.592;10.184;2023-07-29T03:17:08;10.07;;;9.07;;
16015;SDS011;8112;53.592;10.184;2023-07-29T03:22:09;12.97;;;11.67;;
16015;SDS011;8112;53.592;10.184;2023-07-29T03:27:12;15.53;;;12.23;;
16015;SDS011;8112;53.592;10.184;2023-07-29T03:32:16;15.40;;;13.80;;
16015;SDS011;8112;53.592;10.184;2023-07-29T03:37:17;15.60;;;14.10;;
16015;SDS011;8112;53.592;10.184;2023-07-29T03:42:20;15.20;;;13.60;;
16015;SDS011;8112;53.592;10.184;2023-07-29T03:47:22;18.40;;;16.00;;
16015;SDS011;8112;53.592;10.184;2023-07-29T03:52:25;16.83;;;15.10;;
16015;SDS011;8112;53.592;10.184;2023-07-29T03:57:28;17.27;;;15.73;;
16015;SDS011;8112;53.592;10.184;2023-07-29T04:02:30;18.47;;;15.80;;
16015;SDS011;8112;53.592;10.184;2023-07-29T04:07:33;19.17;;;17.27;;
16015;SDS011;8112;53.592;10.184;2023-07-29T04:12:36;18.60;;;16.67;;
16015;SDS011;8112;53.592;10.184;2023-07-29T04:17:38;21.67;;;18.10;;
16015;SDS011;8112;53.592;10.184;2023-07-29T04:22:40;22.07;;;19.10;;
16015;SDS011;8112;53.592;10.184;2023-07-29T04:27:43;19.27;;;17.37;;
16015;SDS011;8112;53.592;10.184;2023-07-29T04:32:45;22.50;;;19.80;;
16015;SDS011;8112;53.592;10.184;2023-07-29T04:37:48;23.90;;;21.23;;
16015;SDS011;8112;53.592;10.184;2023-07-29T04:42:52;34.03;;;25.80;;
16015;SDS011;8112;53.592;10.184;2023-07-29T04:47:53;25.23;;;21.40;;
16015;SDS011;8112;53.592;10.184;2023-07-29T04:52:55;34.43;;;29.67;;
16015;SDS011;8112;53.592;10.184;2023-07-29T04:57:58;31.17;;;27.87;;
16015;SDS011;8112;53.592;10.184;2023-07-29T05:03:00;37.43;;;29.03;;
16015;SDS011;8112;53.592;10.184;2023-07-29T05:08:02;35.63;;;29.40;;
16015;SDS011;8112;53.592;10.184;2023-07-29T05:13:05;40.30;;;32.90;;
16015;SDS011;8112;53.592;10.184;2023-07-29T05:18:08;41.90;;;34.70;;
16015;SDS011;8112;53.592;10.184;2023-07-29T05:23:10;42.23;;;35.43;;
16015;SDS011;8112;53.592;10.184;2023-07-29T05:28:13;39.37;;;35.07;;
16015;SDS011;8112;53.592;10.184;2023-07-29T05:33:16;39.17;;;34.47;;
16015;SDS011;8112;53.592;10.184;2023-07-29T05:38:18;41.37;;;36.60;;
16015;SDS011;8112;53.592;10.184;2023-07-29T05:43:21;42.57;;;36.63;;
16015;SDS011;8112;53.592;10.184;2023-07-29T05:48:23;41.90;;;36.53;;
16015;SDS011;8112;53.592;10.184;2023-07-29T05:53:25;39.40;;;35.23;;
16015;SDS011;8112;53.592;10.184;2023-07-29T05:58:28;36.97;;;33.13;;
16015;SDS011;8112;53.592;10.184;2023-07-29T06:03:31;37.23;;;33.37;;
16015;SDS011;8112;53.592;10.184;2023-07-29T06:08:33;30.47;;;27.43;;
16015;SDS011;8112;53.592;10.184;2023-07-29T06:13:36;35.50;;;32.10;;
16015;SDS011;8112;53.592;10.184;2023-07-29T06:18:38;33.27;;;27.03;;
16015;SDS011;8112;53.592;10.184;2023-07-29T06:23:40;32.27;;;28.93;;
16015;SDS011;8112;53.592;10.184;2023-07-29T06:28:43;33.40;;;30.20;;
16015;SDS011;8112;53.592;10.184;2023-07-29T06:33:44;35.90;;;32.30;;
16015;SDS011;8112;53.592;10.184;2023-07-29T06:38:46;36.30;;;31.30;;
16015;SDS011;8112;53.592;10.184;2023-07-29T06:43:49;29.17;;;26.47;;
16015;SDS011;8112;53.592;10.184;2023-07-29T06:48:51;32.40;;;29.33;;
16015;SDS011;8112;53.592;10.184;2023-07-29T06:53:53;31.40;;;28.27;;
16015;SDS011;8112;53.592;10.184;2023-07-29T06:58:56;28.97;;;26.30;;
16015;SDS011;8112;53.592;10.184;2023-07-29T07:03:57;28.57;;;25.93;;
16015;SDS011;8112;53.592;10.184;2023-07-29T07:08:59;25.37;;;23.00;;
16015;SDS011;8112;53.592;10.184;2023-07-29T07:14:02;24.27;;;22.03;;
16015;SDS011;8112;53.592;10.184;2023-07-29T07:19:04;22.97;;;20.87;;
16015;SDS011;8112;53.592;10.184;2023-07-29T07:24:06;23.80;;;21.47;;
16015;SDS011;8112;53.592;10.184;2023-07-29T07:29:09;27.30;;;24.70;;
16015;SDS011;8112;53.592;10.184;2023-07-29T07:34:14;23.30;;;21.17;;
16015;SDS011;8112;53.592;10.184;2023-07-29T07:39:15;23.03;;;20.60;;
16015;SDS011;8112;53.592;10.184;2023-07-29T07:44:18;25.67;;;22.97;;
16015;SDS011;8112;53.592;10.184;2023-07-29T07:49:20;24.77;;;22.50;;
16015;SDS011;8112;53.592;10.184;2023-07-29T07:54:22;25.40;;;23.00;;
16015;SDS011;8112;53.592;10.184;2023-07-29T07:59:25;23.10;;;21.03;;
16015;SDS011;8112;53.592;10.184;2023-07-29T08:04:26;21.83;;;19.83;;
16015;SDS011;8112;53.592;10.184;2023-07-29T08:09:28;20.37;;;18.50;;
16015;SDS011;8112;53.592;10.184;2023-07-29T08:14:31;17.47;;;15.87;;
16015;SDS011;8112;53.592;10.184;2023-07-29T08:19:33;15.90;;;14.40;;
16015;SDS011;8112;53.592;10.184;2023-07-29T08:24:35;16.67;;;15.17;;
16015;SDS011;8112;53.592;10.184;2023-07-29T08:29:38;14.77;;;13.40;;
16015;SDS011;8112;53.592;10.184;2023-07-29T08:34:40;12.87;;;11.67;;
16015;SDS011;8112;53.592;10.184;2023-07-29T08:39:42;13.87;;;12.57;;
16015;SDS011;8112;53.592;10.184;2023-07-29T08:44:45;14.87;;;11.60;;
16015;SDS011;8112;53.592;10.184;2023-07-29T08:49:50;12.07;;;11.07;;
16015;SDS011;8112;53.592;10.184;2023-07-29T08:54:53;12.57;;;11.40;;
16015;SDS011;8112;53.592;10.184;2023-07-29T08:59:56;12.83;;;11.73;;
16015;SDS011;8112;53.592;10.184;2023-07-29T09:04:59;11.33;;;10.40;;
16015;SDS011;8112;53.592;10.184;2023-07-29T09:10:02;12.50;;;10.97;;
16015;SDS011;8112;53.592;10.184;2023-07-29T09:15:06;11.53;;;10.53;;
16015;SDS011;8112;53.592;10.184;2023-07-29T09:20:09;13.07;;;11.90;;
16015;SDS011;8112;53.592;10.184;2023-07-29T09:25:12;12.43;;;11.23;;
16015;SDS011;8112;53.592;10.184;2023-07-29T09:30:17;11.97;;;10.97;;
16015;SDS011;8112;53.592;10.184;2023-07-29T09:35:19;11.63;;;10.60;;
16015;SDS011;8112;53.592;10.184;2023-07-29T09:40:21;11.30;;;10.30;;
16015;SDS011;8112;53.592;10.184;2023-07-29T09:45:25;10.60;;;9.70;;
16015;SDS011;8112;53.592;10.184;2023-07-29T09:50:27;10.03;;;9.13;;
16015;SDS011;8112;53.592;10.184;2023-07-29T09:55:32;10.70;;;9.70;;
16015;SDS011;8112;53.592;10.184;2023-07-29T10:00:36;9.53;;;8.63;;
16015;SDS011;8112;53.592;10.184;2023-07-29T10:05:38;8.33;;;7.50;;
16015;SDS011;8112;53.592;10.184;2023-07-29T10:10:41;10.57;;;8.70;;
16015;SDS011;8112;53.592;10.184;2023-07-29T10:15:45;8.80;;;8.00;;
16015;SDS011;8112;53.592;10.184;2023-07-29T10:20:47;8.47;;;7.77;;
16015;SDS011;8112;53.592;10.184;2023-07-29T10:25:53;8.03;;;7.30;;
16015;SDS011;8112;53.592;10.184;2023-07-29T10:31:02;6.13;;;5.63;;
16015;SDS011;8112;53.592;10.184;2023-07-29T10:36:05;5.97;;;5.30;;
16015;SDS011;8112;53.592;10.184;2023-07-29T10:41:07;4.53;;;3.77;;
16015;SDS011;8112;53.592;10.184;2023-07-29T10:46:19;4.50;;;4.10;;
16015;SDS011;8112;53.592;10.184;2023-07-29T10:51:25;4.27;;;3.87;;
16015;SDS011;8112;53.592;10.184;2023-07-29T10:56:30;3.77;;;3.50;;
16015;SDS011;8112;53.592;10.184;2023-07-29T11:01:34;3.80;;;3.50;;
16015;SDS011;8112;53.592;10.184;2023-07-29T11:06:49;3.40;;;3.10;;
16015;SDS011;8112;53.592;10.184;2023-07-29T11:12:05;3.73;;;2.93;;
16015;SDS011;8112;53.592;10.184;2023-07-29T11:17:10;3.50;;;3.20;;
16015;SDS011;8112;53.592;10.184;2023-07-29T11:22:12;3.00;;;2.80;;
16015;SDS011;8112;53.592;10.184;2023-07-29T11:27:14;4.07;;;2.90;;
16015;SDS011;8112;53.592;10.184;2023-07-29T11:32:17;3.67;;;3.07;;
16015;SDS011;8112;53.592;10.184;2023-07-29T11:37:18;3.50;;;2.90;;
16015;SDS011;8112;53.592;10.184;2023-07-29T11:42:21;3.30;;;3.00;;
16015;SDS011;8112;53.592;10.184;2023-07-29T11:47:24;4.10;;;2.93;;
16015;SDS011;8112;53.592;10.184;2023-07-29T11:52:27;4.03;;;2.50;;
16015;SDS011;8112;53.592;10.184;2023-07-29T11:57:29;4.23;;;2.70;;
16015;SDS011;8112;53.592;10.184;2023-07-29T12:02:33;5.23;;;3.00;;
16015;SDS011;8112;53.592;10.184;2023-07-29T12:07:39;3.43;;;3.07;;
16015;SDS011;8112;53.592;10.184;2023-07-29T12:12:44;3.43;;;3.10;;
16015;SDS011;8112;53.592;10.184;2023-07-29T12:17:48;3.43;;;3.13;;
16015;SDS011;8112;53.592;10.184;2023-07-29T12:22:53;5.22;;;3.50;;
16015;SDS011;8112;53.592;10.184;2023-07-29T12:27:55;5.07;;;3.17;;
16015;SDS011;8112;53.592;10.184;2023-07-29T12:32:59;5.13;;;3.20;;
16015;SDS011;8112;53.592;10.184;2023-07-29T12:38:00;3.33;;;3.03;;
16015;SDS011;8112;53.592;10.184;2023-07-29T12:43:02;83.30;;;5.90;;
16015;SDS011;8112;53.592;10.184;2023-07-29T12:48:05;4.03;;;2.30;;
16015;SDS011;8112;53.592;10.184;2023-07-29T12:53:07;2.27;;;2.10;;
16015;SDS011;8112;53.592;10.184;2023-07-29T12:58:13;2.63;;;2.43;;
16015;SDS011;8112;53.592;10.184;2023-07-29T13:03:16;58.30;;;4.10;;
16015;SDS011;8112;53.592;10.184;2023-07-29T13:08:18;4.27;;;2.30;;
16015;SDS011;8112;53.592;10.184;2023-07-29T13:13:20;446.87;;;14.23;;
16015;SDS011;8112;53.592;10.184;2023-07-29T13:18:23;2.27;;;2.03;;
16015;SDS011;8112;53.592;10.184;2023-07-29T13:23:25;1.53;;;1.43;;
16015;SDS011;8112;53.592;10.184;2023-07-29T13:28:27;1.50;;;1.40;;
16015;SDS011;8112;53.592;10.184;2023-07-29T13:33:30;1.70;;;1.60;;
16015;SDS011;8112;53.592;10.184;2023-07-29T13:38:34;2.80;;;1.83;;
16015;SDS011;8112;53.592;10.184;2023-07-29T13:43:35;80.63;;;3.80;;
16015;SDS011;8112;53.592;10.184;2023-07-29T13:48:38;2.10;;;1.73;;
16015;SDS011;8112;53.592;10.184;2023-07-29T13:53:40;1.77;;;1.67;;
16015;SDS011;8112;53.592;10.184;2023-07-29T13:58:42;2.60;;;1.50;;
16015;SDS011;8112;53.592;10.184;2023-07-29T14:03:45;1.80;;;1.70;;
16015;SDS011;8112;53.592;10.184;2023-07-29T14:08:46;1.77;;;1.60;;
16015;SDS011;8112;53.592;10.184;2023-07-29T14:13:48;1.50;;;1.40;;
16015;SDS011;8112;53.592;10.184;2023-07-29T14:18:51;1.70;;;1.50;;
16015;SDS011;8112;53.592;10.184;2023-07-29T14:23:53;3.95;;;1.52;;
16015;SDS011;8112;53.592;10.184;2023-07-29T14:28:54;2.03;;;1.63;;
16015;SDS011;8112;53.592;10.184;2023-07-29T14:33:57;1.90;;;1.50;;
16015;SDS011;8112;53.592;10.184;2023-07-29T14:38:59;2.63;;;1.20;;
16015;SDS011;8112;53.592;10.184;2023-07-29T14:44:01;1.75;;;1.60;;
16015;SDS011;8112;53.592;10.184;2023-07-29T14:49:04;2.40;;;1.80;;
16015;SDS011;8112;53.592;10.184;2023-07-29T14:54:06;1.73;;;1.60;;
16015;SDS011;8112;53.592;10.184;2023-07-29T14:59:08;2.35;;;1.58;;
16015;SDS011;8112;53.592;10.184;2023-07-29T15:04:11;2.28;;;1.60;;
16015;SDS011;8112;53.592;10.184;2023-07-29T15:09:12;3.30;;;1.60;;
16015;SDS011;8112;53.592;10.184;2023-07-29T15:14:14;2.05;;;1.75;;
16015;SDS011;8112;53.592;10.184;2023-07-29T15:19:17;2.80;;;1.52;;
16015;SDS011;8112;53.592;10.184;2023-07-29T15:24:19;1.90;;;1.70;;
16015;SDS011;8112;53.592;10.184;2023-07-29T15:29:21;2.10;;;1.77;;
16015;SDS011;8112;53.592;10.184;2023-07-29T15:34:24;3.80;;;1.70;;
16015;SDS011;8112;53.592;10.184;2023-07-29T15:39:26;2.45;;;1.50;;
16015;SDS011;8112;53.592;10.184;2023-07-29T15:44:29;2.35;;;1.80;;
16015;SDS011;8112;53.592;10.184;2023-07-29T15:49:32;2.05;;;1.70;;
16015;SDS011;8112;53.592;10.184;2023-07-29T15:54:33;2.17;;;1.25;;
16015;SDS011;8112;53.592;10.184;2023-07-29T15:59:35;2.22;;;1.70;;
16015;SDS011;8112;53.592;10.184;2023-07-29T16:04:39;1.88;;;1.50;;
16015;SDS011;8112;53.592;10.184;2023-07-29T16:09:40;3.05;;;1.52;;
16015;SDS011;8112;53.592;10.184;2023-07-29T16:14:42;4.32;;;1.75;;
16015;SDS011;8112;53.592;10.184;2023-07-29T16:19:55;2.30;;;1.90;;
16015;SDS011;8112;53.592;10.184;2023-07-29T16:24:57;4.27;;;2.00;;
16015;SDS011;8112;53.592;10.184;2023-07-29T16:30:00;2.27;;;2.00;;
16015;SDS011;8112;53.592;10.184;2023-07-29T16:35:04;1.90;;;1.80;;
16015;SDS011;8112;53.592;10.184;2023-07-29T16:40:07;3.10;;;1.57;;
16015;SDS011;8112;53.592;10.184;2023-07-29T16:45:10;4.53;;;2.30;;
16015;SDS011;8112;53.592;10.184;2023-07-29T16:50:13;3.07;;;2.00;;
16015;SDS011;8112;53.592;10.184;2023-07-29T16:55:15;1.90;;;1.60;;
16015;SDS011;8112;53.592;10.184;2023-07-29T17:00:16;1.97;;;1.80;;
16015;SDS011;8112;53.592;10.184;2023-07-29T17:05:20;3.30;;;1.60;;
16015;SDS011;8112;53.592;10.184;2023-07-29T17:10:21;5.07;;;2.00;;
16015;SDS011;8112;53.592;10.184;2023-07-29T17:15:23;3.57;;;1.97;;
16015;SDS011;8112;53.592;10.184;2023-07-29T17:20:26;2.00;;;1.90;;
16015;SDS011;8112;53.592;10.184;2023-07-29T17:25:28;2.97;;;2.20;;
16015;SDS011;8112;53.592;10.184;2023-07-29T17:30:31;3.63;;;1.97;;
16015;SDS011;8112;53.592;10.184;2023-07-29T17:35:36;2.10;;;1.90;;
16015;SDS011;8112;53.592;10.184;2023-07-29T17:40:38;2.17;;;1.80;;
16015;SDS011;8112;53.592;10.184;2023-07-29T17:45:41;3.27;;;2.77;;
16015;SDS011;8112;53.592;10.184;2023-07-29T17:50:44;3.77;;;2.73;;
16015;SDS011;8112;53.592;10.184;2023-07-29T17:55:47;2.33;;;2.13;;
16015;SDS011;8112;53.592;10.184;2023-07-29T18:00:49;3.27;;;2.30;;
16015;SDS011;8112;53.592;10.184;2023-07-29T18:05:54;2.90;;;2.20;;
16015;SDS011;8112;53.592;10.184;2023-07-29T18:10:55;3.87;;;2.50;;
16015;SDS011;8112;53.592;10.184;2023-07-29T18:15:57;3.90;;;2.83;;
16015;SDS011;8112;53.592;10.184;2023-07-29T18:21:00;3.50;;;2.77;;
16015;SDS011;8112;53.592;10.184;2023-07-29T18:26:02;5.17;;;2.77;;
16015;SDS011;8112;53.592;10.184;2023-07-29T18:31:03;5.27;;;3.07;;
16015;SDS011;8112;53.592;10.184;2023-07-29T18:36:07;4.03;;;3.60;;
16015;SDS011;8112;53.592;10.184;2023-07-29T18:41:08;4.80;;;3.77;;
16015;SDS011;8112;53.592;10.184;2023-07-29T18:46:10;5.60;;;4.30;;
16015;SDS011;8112;53.592;10.184;2023-07-29T18:51:13;5.57;;;4.03;;
16015;SDS011;8112;53.592;10.184;2023-07-29T18:56:15;5.43;;;3.90;;
16015;SDS011;8112;53.592;10.184;2023-07-29T19:01:16;5.60;;;4.10;;
16015;SDS011;8112;53.592;10.184;2023-07-29T19:06:19;5.43;;;4.20;;
16015;SDS011;8112;53.592;10.184;2023-07-29T19:11:21;5.27;;;4.77;;
16015;SDS011;8112;53.592;10.184;2023-07-29T19:16:23;5.00;;;4.50;;
16015;SDS011;8112;53.592;10.184;2023-07-29T19:21:26;6.77;;;4.80;;
16015;SDS011;8112;53.592;10.184;2023-07-29T19:26:27;7.77;;;4.87;;
16015;SDS011;8112;53.592;10.184;2023-07-29T19:31:29;7.40;;;4.90;;
16015;SDS011;8112;53.592;10.184;2023-07-29T19:36:32;5.43;;;4.67;;
16015;SDS011;8112;53.592;10.184;2023-07-29T19:41:35;5.53;;;5.00;;
16015;SDS011;8112;53.592;10.184;2023-07-29T19:46:36;7.43;;;4.73;;
16015;SDS011;8112;53.592;10.184;2023-07-29T19:51:39;7.30;;;4.97;;
16015;SDS011;8112;53.592;10.184;2023-07-29T19:56:41;8.00;;;4.93;;
16015;SDS011;8112;53.592;10.184;2023-07-29T20:01:44;8.30;;;5.23;;
16015;SDS011;8112;53.592;10.184;2023-07-29T20:06:47;6.00;;;5.40;;
16015;SDS011;8112;53.592;10.184;2023-07-29T20:11:53;7.60;;;5.13;;
16015;SDS011;8112;53.592;10.184;2023-07-29T20:16:54;5.70;;;4.80;;
16015;SDS011;8112;53.592;10.184;2023-07-29T20:21:57;7.40;;;5.60;;
16015;SDS011;8112;53.592;10.184;2023-07-29T20:26:59;6.23;;;5.63;;
16015;SDS011;8112;53.592;10.184;2023-07-29T20:32:01;6.77;;;6.10;;
16015;SDS011;8112;53.592;10.184;2023-07-29T20:37:05;8.60;;;6.63;;
16015;SDS011;8112;53.592;10.184;2023-07-29T20:42:07;8.20;;;7.13;;
16015;SDS011;8112;53.592;10.184;2023-07-29T20:47:09;10.60;;;7.53;;
16015;SDS011;8112;53.592;10.184;2023-07-29T20:52:12;9.63;;;7.70;;
16015;SDS011;8112;53.592;10.184;2023-07-29T20:57:14;8.60;;;7.73;;
16015;SDS011;8112;53.592;10.184;2023-07-29T21:02:16;9.50;;;6.63;;
16015;SDS011;8112;53.592;10.184;2023-07-29T21:07:19;11.97;;;8.40;;
16015;SDS011;8112;53.592;10.184;2023-07-29T21:12:20;11.60;;;8.97;;
16015;SDS011;8112;53.592;10.184;2023-07-29T21:17:22;11.10;;;9.00;;
16015;SDS011;8112;53.592;10.184;2023-07-29T21:22:25;13.13;;;10.13;;
16015;SDS011;8112;53.592;10.184;2023-07-29T21:27:27;12.90;;;11.67;;
16015;SDS011;8112;53.592;10.184;2023-07-29T21:32:28;12.67;;;11.23;;
16015;SDS011;8112;53.592;10.184;2023-07-29T21:37:32;12.70;;;11.40;;
16015;SDS011;8112;53.592;10.184;2023-07-29T21:42:34;11.93;;;10.93;;
16015;SDS011;8112;53.592;10.184;2023-07-29T21:47:36;14.40;;;10.13;;
16015;SDS011;8112;53.592;10.184;2023-07-29T21:52:39;11.10;;;9.97;;
16015;SDS011;8112;53.592;10.184;2023-07-29T21:57:41;11.03;;;9.90;;
16015;SDS011;8112;53.592;10.184;2023-07-29T22:02:43;10.50;;;9.60;;
16015;SDS011;8112;53.592;10.184;2023-07-29T22:07:46;10.00;;;9.07;;
16015;SDS011;8112;53.592;10.184;2023-07-29T22:12:47;8.93;;;8.13;;
16015;SDS011;8112;53.592;10.184;2023-07-29T22:17:49;9.93;;;8.97;;
16015;SDS011;8112;53.592;10.184;2023-07-29T22:22:52;9.77;;;8.77;;
16015;SDS011;8112;53.592;10.184;2023-07-29T22:27:54;9.13;;;8.23;;
16015;SDS011;8112;53.592;10.184;2023-07-29T22:32:56;7.50;;;6.77;;
16015;SDS011;8112;53.592;10.184;2023-07-29T22:37:59;7.50;;;6.77;;
16015;SDS011;8112;53.592;10.184;2023-07-29T22:43:00;7.63;;;6.93;;
16015;SDS011;8112;53.592;10.184;2023-07-29T22:48:02;8.60;;;7.80;;
16015;SDS011;8112;53.592;10.184;2023-07-29T22:53:05;8.87;;;7.77;;
16015;SDS011;8112;53.592;10.184;2023-07-29T22:58:07;7.87;;;7.17;;
16015;SDS011;8112;53.592;10.184;2023-07-29T23:03:09;7.90;;;7.20;;
16015;SDS011;8112;53.592;10.184;2023-07-29T23:08:12;7.87;;;7.07;;
16015;SDS011;8112;53.592;10.184;2023-07-29T23:13:14;7.90;;;7.10;;
16015;SDS011;8112;53.592;10.184;2023-07-29T23:18:15;7.73;;;7.13;;
16015;SDS011;8112;53.592;10.184;2023-07-29T23:23:18;8.60;;;6.83;;
16015;SDS011;8112;53.592;10.184;2023-07-29T23:28:20;7.70;;;6.87;;
16015;SDS011;8112;53.592;10.184;2023-07-29T23:33:22;7.10;;;6.40;;
16015;SDS011;8112;53.592;10.184;2023-07-29T23:38:26;7.30;;;6.60;;
16015;SDS011;8112;53.592;10.184;2023-07-29T23:43:28;7.43;;;6.73;;
16015;SDS011;8112;53.592;10.184;2023-07-29T23:48:29;7.83;;;7.03;;
16015;SDS011;8112;53.592;10.184;2023-07-29T23:53:32;7.83;;;7.03;;
16015;SDS011;8112;53.592;10.184;2023-07-29T23:58:34;8.13;;;7.43;;
